createdAt,value
2024-03-11T00:00:58.738Z,4.40
2024-03-11T00:04:00.394Z,3.00
2024-03-11T00:07:04.705Z,3.00
2024-03-11T00:10:12.772Z,3.53
2024-03-11T00:13:17.436Z,2.97
2024-03-11T00:16:19.012Z,3.33
2024-03-11T00:19:20.454Z,3.37
2024-03-11T00:22:22.151Z,3.00
2024-03-11T00:25:23.723Z,2.93
2024-03-11T00:28:25.179Z,2.40
2024-03-11T00:31:30.573Z,2.90
2024-03-11T00:34:33.766Z,3.00
2024-03-11T00:37:35.950Z,5.93
2024-03-11T00:40:38.042Z,3.03
2024-03-11T00:43:39.498Z,3.03
2024-03-11T00:46:41.297Z,2.87
2024-03-11T00:49:42.975Z,3.83
2024-03-11T00:52:45.926Z,3.63
2024-03-11T00:55:47.615Z,3.07
2024-03-11T00:58:49.364Z,2.80
2024-03-11T01:01:51.484Z,3.50
2024-03-11T01:04:53.699Z,3.87
2024-03-11T01:07:55.133Z,2.93
2024-03-11T01:10:59.851Z,3.60
2024-03-11T01:14:01.391Z,3.37
2024-03-11T01:17:03.374Z,3.80
2024-03-11T01:20:07.996Z,3.50
2024-03-11T01:23:09.669Z,3.50
2024-03-11T01:26:11.184Z,5.17
2024-03-11T01:29:13.278Z,3.20
2024-03-11T01:32:14.756Z,3.30
2024-03-11T01:35:16.452Z,2.97
2024-03-11T01:38:19.281Z,3.43
2024-03-11T01:41:20.829Z,3.23
2024-03-11T01:44:23.025Z,3.40
2024-03-11T01:47:26.352Z,3.30
2024-03-11T01:50:28.010Z,3.27
2024-03-11T01:53:29.874Z,4.93
2024-03-11T01:56:32.760Z,5.37
2024-03-11T01:59:39.068Z,2.80
2024-03-11T02:02:41.075Z,3.17
2024-03-11T02:05:44.317Z,3.60
2024-03-11T02:08:45.894Z,3.83
2024-03-11T02:11:48.321Z,5.13
2024-03-11T02:14:50.050Z,3.60
2024-03-11T02:17:51.610Z,3.20
2024-03-11T02:20:53.186Z,3.43
2024-03-11T02:23:54.695Z,3.43
2024-03-11T02:26:56.174Z,4.63
2024-03-11T02:29:57.629Z,3.70
2024-03-11T02:32:59.880Z,3.90
2024-03-11T02:36:02.392Z,3.87
2024-03-11T02:39:06.352Z,4.13
2024-03-11T02:42:07.880Z,3.53
2024-03-11T02:45:12.830Z,3.47
2024-03-11T02:48:14.410Z,3.50
2024-03-11T02:51:15.924Z,3.37
2024-03-11T02:54:17.791Z,3.50
2024-03-11T02:57:19.238Z,4.17
2024-03-11T03:00:21.330Z,4.23
2024-03-11T03:03:22.881Z,5.33
2024-03-11T03:06:24.351Z,3.57
2024-03-11T03:09:25.893Z,3.40
2024-03-11T03:12:30.551Z,3.93
2024-03-11T03:15:32.212Z,4.67
2024-03-11T03:18:35.303Z,4.87
2024-03-11T03:21:37.085Z,4.00
2024-03-11T03:24:38.493Z,3.20
2024-03-11T03:27:40.117Z,3.90
2024-03-11T03:30:41.586Z,5.30
2024-03-11T03:33:43.036Z,5.00
2024-03-11T03:36:44.533Z,4.07
2024-03-11T03:39:46.011Z,4.20
2024-03-11T03:42:48.588Z,3.80
2024-03-11T03:45:50.077Z,5.87
2024-03-11T03:48:52.604Z,4.07
2024-03-11T03:51:54.021Z,5.13
2024-03-11T03:54:55.709Z,4.20
2024-03-11T03:57:57.162Z,4.27
2024-03-11T04:01:00.714Z,4.40
2024-03-11T04:04:02.211Z,7.17
2024-03-11T04:07:04.311Z,3.60
2024-03-11T04:10:06.528Z,6.00
2024-03-11T04:13:08.106Z,4.03
2024-03-11T04:16:12.990Z,4.47
2024-03-11T04:19:14.738Z,4.13
2024-03-11T04:22:16.238Z,4.37
2024-03-11T04:25:26.623Z,4.33
2024-03-11T04:28:29.726Z,4.30
2024-03-11T04:31:34.072Z,4.03
2024-03-11T04:34:39.896Z,4.57
2024-03-11T04:37:41.360Z,4.10
2024-03-11T04:40:48.458Z,3.63
2024-03-11T04:43:50.281Z,4.03
2024-03-11T04:46:51.892Z,3.63
2024-03-11T04:49:53.333Z,3.43
2024-03-11T04:52:56.421Z,4.17
2024-03-11T04:55:58.057Z,4.27
2024-03-11T04:59:00.780Z,5.10
2024-03-11T05:02:02.694Z,5.00
2024-03-11T05:05:04.519Z,3.90
2024-03-11T05:08:07.115Z,4.90
2024-03-11T05:11:09.116Z,2.57
2024-03-11T05:14:10.636Z,3.37
2024-03-11T05:17:14.068Z,2.90
2024-03-11T05:20:16.311Z,3.53
2024-03-11T05:23:18.443Z,3.40
2024-03-11T05:26:19.929Z,2.40
2024-03-11T05:29:21.481Z,3.57
2024-03-11T05:32:22.935Z,4.37
2024-03-11T05:35:25.917Z,3.00
2024-03-11T05:38:27.800Z,2.53
2024-03-11T05:41:29.640Z,4.77
2024-03-11T05:44:31.134Z,3.37
2024-03-11T05:47:32.639Z,2.83
2024-03-11T05:50:34.282Z,2.30
2024-03-11T05:53:38.349Z,3.13
2024-03-11T05:56:39.877Z,2.03
2024-03-11T05:59:41.425Z,2.33
2024-03-11T06:02:43.604Z,2.63
2024-03-11T06:05:45.577Z,2.40
2024-03-11T06:08:47.681Z,3.27
2024-03-11T06:11:50.246Z,2.43
2024-03-11T06:14:52.531Z,2.20
2024-03-11T06:17:54.457Z,2.13
2024-03-11T06:20:56.141Z,2.23
2024-03-11T06:24:00.255Z,1.70
2024-03-11T06:27:01.726Z,2.20
2024-03-11T06:30:04.182Z,2.40
2024-03-11T06:33:10.666Z,2.47
2024-03-11T06:36:15.232Z,2.33
2024-03-11T06:39:17.880Z,2.13
2024-03-11T06:42:19.369Z,1.80
2024-03-11T06:45:21.326Z,2.00
2024-03-11T06:48:23.888Z,3.07
2024-03-11T06:51:25.720Z,1.63
2024-03-11T06:54:27.254Z,1.77
2024-03-11T06:57:28.705Z,2.03
2024-03-11T07:00:30.205Z,1.53
2024-03-11T07:03:31.758Z,2.23
2024-03-11T07:06:33.201Z,2.17
2024-03-11T07:09:35.261Z,1.60
2024-03-11T07:12:36.848Z,2.23
2024-03-11T07:15:38.330Z,2.23
2024-03-11T07:18:43.187Z,4.20
2024-03-11T07:21:46.501Z,1.50
2024-03-11T07:24:48.009Z,2.97
2024-03-11T07:27:49.848Z,3.17
2024-03-11T07:30:52.426Z,2.00
2024-03-11T07:33:53.987Z,2.37
2024-03-11T07:36:57.175Z,2.13
2024-03-11T07:39:58.759Z,2.63
2024-03-11T07:43:00.632Z,1.47
2024-03-11T07:46:04.884Z,3.07
2024-03-11T07:49:12.467Z,1.70
2024-03-11T07:52:14.322Z,2.57
2024-03-11T07:55:15.839Z,1.70
2024-03-11T07:58:17.449Z,1.60
2024-03-11T08:01:22.464Z,2.80
2024-03-11T08:04:25.509Z,1.50
2024-03-11T08:07:26.999Z,1.63
2024-03-11T08:10:28.946Z,3.03
2024-03-11T08:13:32.208Z,1.23
2024-03-11T08:16:35.011Z,2.73
2024-03-11T08:19:36.555Z,4.37
2024-03-11T08:22:48.638Z,2.50
2024-03-11T08:25:52.544Z,2.90
2024-03-11T08:28:54.139Z,1.43
2024-03-11T08:31:55.644Z,2.83
2024-03-11T08:34:57.995Z,1.87
2024-03-11T08:37:59.912Z,2.93
2024-03-11T08:41:02.021Z,3.10
2024-03-11T08:44:03.616Z,2.10
2024-03-11T08:47:10.240Z,1.73
2024-03-11T08:50:18.076Z,1.50
2024-03-11T08:53:20.304Z,1.30
2024-03-11T08:56:22.713Z,1.90
2024-03-11T08:59:24.361Z,2.10
2024-03-11T09:02:28.787Z,1.77
2024-03-11T09:05:30.387Z,2.00
2024-03-11T09:08:31.866Z,2.37
2024-03-11T09:11:33.588Z,2.20
2024-03-11T09:14:35.243Z,2.73
2024-03-11T09:17:36.725Z,2.40
2024-03-11T09:20:38.190Z,2.70
2024-03-11T09:23:39.638Z,1.77
2024-03-11T09:26:41.173Z,3.17
2024-03-11T09:29:42.717Z,2.30
2024-03-11T09:32:45.834Z,1.10
2024-03-11T09:35:48.672Z,2.70
2024-03-11T09:38:50.159Z,3.00
2024-03-11T09:41:55.302Z,1.57
2024-03-11T09:44:57.529Z,2.17
2024-03-11T09:48:01.049Z,1.53
2024-03-11T09:51:03.944Z,1.90
2024-03-11T09:54:06.629Z,2.53
2024-03-11T09:57:08.261Z,1.30
2024-03-11T10:00:14.125Z,1.23
2024-03-11T10:03:26.092Z,1.53
2024-03-11T10:06:28.401Z,1.80
2024-03-11T10:09:32.846Z,3.30
2024-03-11T10:12:35.563Z,1.93
2024-03-11T10:15:37.243Z,1.17
2024-03-11T10:18:38.816Z,1.13
2024-03-11T10:21:41.706Z,1.73
2024-03-11T10:24:45.979Z,4.37
2024-03-11T10:27:48.827Z,3.80
2024-03-11T10:30:51.303Z,1.43
2024-03-11T10:33:55.140Z,10.03
2024-03-11T10:36:58.816Z,2.20
2024-03-11T10:40:05.283Z,2.00
2024-03-11T10:43:23.961Z,10.23
2024-03-11T10:46:25.390Z,3.93
2024-03-11T10:49:28.517Z,2.17
2024-03-11T10:52:34.494Z,1.20
2024-03-11T10:55:39.808Z,2.70
2024-03-11T10:58:43.723Z,4.73
2024-03-11T11:01:55.384Z,2.00
2024-03-11T11:04:59.085Z,1.83
2024-03-11T11:08:03.570Z,1.73
2024-03-11T11:11:06.647Z,1.10
2024-03-11T11:14:12.480Z,1.30
2024-03-11T11:17:18.313Z,1.83
2024-03-11T11:20:32.315Z,4.03
2024-03-11T11:23:36.695Z,1.30
2024-03-11T11:26:42.417Z,1.63
2024-03-11T11:29:44.196Z,1.93
2024-03-11T11:32:45.875Z,4.13
2024-03-11T11:35:47.391Z,1.57
2024-03-11T11:38:50.005Z,1.73
2024-03-11T11:41:54.747Z,1.40
2024-03-11T11:44:58.217Z,2.33
2024-03-11T11:48:14.099Z,1.90
2024-03-11T11:51:15.597Z,2.43
2024-03-11T11:54:35.796Z,2.47
2024-03-11T11:57:40.233Z,1.70
2024-03-11T12:00:45.400Z,2.93
2024-03-11T12:03:47.768Z,2.80
2024-03-11T12:06:51.016Z,2.30
2024-03-11T12:09:57.371Z,1.67
2024-03-11T12:12:59.404Z,1.53
2024-03-11T12:16:21.706Z,1.40
2024-03-11T12:19:23.242Z,1.20
2024-03-11T12:22:26.667Z,1.67
2024-03-11T12:25:29.718Z,1.47
2024-03-11T12:28:31.289Z,1.83
2024-03-11T12:31:37.289Z,1.80
2024-03-11T12:34:40.012Z,7.80
2024-03-11T12:37:43.865Z,1.03
2024-03-11T12:40:45.924Z,2.03
2024-03-11T12:43:47.708Z,1.17
2024-03-11T12:46:57.149Z,1.93
2024-03-11T12:49:59.757Z,2.20
2024-03-11T12:53:03.412Z,2.27
2024-03-11T12:56:08.436Z,1.10
2024-03-11T12:59:16.020Z,1.93
2024-03-11T13:02:21.827Z,1.20
2024-03-11T13:05:24.200Z,0.87
2024-03-11T13:08:26.062Z,2.67
2024-03-11T13:11:28.714Z,1.70
2024-03-11T13:14:31.172Z,1.07
2024-03-11T13:17:33.646Z,1.77
2024-03-11T13:20:38.904Z,3.43
2024-03-11T13:23:44.226Z,0.93
2024-03-11T13:26:49.563Z,1.10
2024-03-11T13:29:51.054Z,2.57
2024-03-11T13:32:52.556Z,2.03
2024-03-11T13:35:54.771Z,1.67
2024-03-11T13:38:56.245Z,1.17
2024-03-11T13:42:02.044Z,2.00
2024-03-11T14:45:33.566Z,0.93
2024-03-11T14:48:36.750Z,1.10
2024-03-11T14:51:42.640Z,1.00
2024-03-11T14:54:44.219Z,1.00
2024-03-11T14:57:46.978Z,2.30
2024-03-11T15:00:50.787Z,2.40
2024-03-11T15:03:52.716Z,1.23
2024-03-11T15:06:54.436Z,0.70
2024-03-11T15:10:00.055Z,1.03
2024-03-11T15:13:02.733Z,1.43
2024-03-11T15:16:04.899Z,1.17
2024-03-11T15:19:06.406Z,2.10
2024-03-11T15:22:07.914Z,0.80
2024-03-11T15:25:10.234Z,1.67
2024-03-11T15:28:13.576Z,1.33
2024-03-11T15:31:15.010Z,0.80
2024-03-11T15:34:16.771Z,1.83
2024-03-11T15:37:20.148Z,1.37
2024-03-11T15:40:22.393Z,1.70
2024-03-11T15:43:26.041Z,0.73
2024-03-11T15:46:29.339Z,1.10
2024-03-11T15:49:34.128Z,1.00
2024-03-11T15:52:35.757Z,3.20
2024-03-11T15:55:37.272Z,2.50
2024-03-11T15:58:38.746Z,1.33
2024-03-11T16:01:41.740Z,1.60
2024-03-11T16:04:43.374Z,1.23
2024-03-11T16:07:48.981Z,1.07
2024-03-11T16:10:50.507Z,1.20
2024-03-11T16:13:54.288Z,2.50
2024-03-11T16:16:56.482Z,1.13
2024-03-11T16:19:58.581Z,1.03
2024-03-11T16:23:06.775Z,0.90
2024-03-11T16:26:08.388Z,2.20
2024-03-11T16:29:15.653Z,1.10
2024-03-11T16:32:18.420Z,0.80
2024-03-11T16:35:35.563Z,1.10
2024-03-11T16:38:37.097Z,1.60
2024-03-11T16:41:41.496Z,1.33
2024-03-11T16:44:45.403Z,1.23
2024-03-11T16:47:49.990Z,1.03
2024-03-11T16:50:54.140Z,1.33
2024-03-11T16:53:55.621Z,2.60
2024-03-11T16:56:57.037Z,1.93
2024-03-11T16:59:59.744Z,1.00
2024-03-11T17:03:02.390Z,1.63
2024-03-11T17:06:03.968Z,1.40
2024-03-11T17:09:05.611Z,1.23
2024-03-11T17:12:10.720Z,1.77
2024-03-11T17:15:15.258Z,0.90
2024-03-11T17:18:21.291Z,2.03
2024-03-11T17:21:23.061Z,1.10
2024-03-11T17:24:33.441Z,1.43
2024-03-11T17:27:35.624Z,4.77
2024-03-11T17:30:40.884Z,1.67
2024-03-11T17:33:42.449Z,2.73
2024-03-11T17:36:43.939Z,1.67
2024-03-11T17:39:45.468Z,1.87
2024-03-11T17:42:49.552Z,1.03
2024-03-11T17:45:51.411Z,1.40
2024-03-11T17:48:53.029Z,4.87
2024-03-11T17:51:56.392Z,2.00
2024-03-11T17:54:58.614Z,4.43
2024-03-11T17:58:01.135Z,2.93
2024-03-11T18:01:03.213Z,3.27
2024-03-11T18:04:06.324Z,2.43
2024-03-11T18:07:07.993Z,4.00
2024-03-11T18:10:09.828Z,1.90
2024-03-11T18:13:17.765Z,3.00
2024-03-11T18:16:19.335Z,1.87
2024-03-11T18:19:25.432Z,2.17
2024-03-11T18:22:28.389Z,1.40
2024-03-11T18:25:36.477Z,2.77
2024-03-11T18:28:37.988Z,2.23
2024-03-11T18:31:39.532Z,2.73
2024-03-11T18:34:41.030Z,2.27
2024-03-11T18:37:43.005Z,2.13
2024-03-11T18:40:44.691Z,1.90
2024-03-11T18:43:46.132Z,2.70
2024-03-11T18:46:48.205Z,2.63
2024-03-11T18:49:50.850Z,1.37
2024-03-11T18:52:59.703Z,2.67
2024-03-11T18:56:02.852Z,2.67
2024-03-11T18:59:06.962Z,3.87
2024-03-11T19:02:08.826Z,4.43
2024-03-11T19:05:10.283Z,9.77
2024-03-11T19:08:12.297Z,10.10
2024-03-11T19:11:13.793Z,6.23
2024-03-11T19:14:16.284Z,4.20
2024-03-11T19:17:19.802Z,4.27
2024-03-11T19:20:23.155Z,3.83
2024-03-11T19:23:25.023Z,4.33
2024-03-11T19:26:26.518Z,5.83
2024-03-11T19:29:28.200Z,5.10
2024-03-11T19:32:29.857Z,7.13
2024-03-11T19:35:31.609Z,8.90
2024-03-11T19:39:01.083Z,6.57
2024-03-11T19:42:25.434Z,4.53
2024-03-11T19:45:42.424Z,5.13
2024-03-11T19:49:24.794Z,5.93
2024-03-11T19:53:10.011Z,4.63
2024-03-11T19:56:33.087Z,6.70
2024-03-11T20:00:29.525Z,7.87
2024-03-11T20:03:59.361Z,3.50
2024-03-11T20:07:22.274Z,7.60
2024-03-11T20:11:07.343Z,4.47
2024-03-11T20:14:47.153Z,5.67
2024-03-11T20:18:11.004Z,5.43
2024-03-11T20:21:53.891Z,4.40
2024-03-11T20:25:33.322Z,5.23
2024-03-11T20:29:01.901Z,5.53
2024-03-11T20:32:12.273Z,4.03
2024-03-11T20:35:13.796Z,4.47
2024-03-11T20:38:15.370Z,6.03
2024-03-11T20:41:17.310Z,3.67
2024-03-11T20:44:18.776Z,5.57
2024-03-11T20:47:20.308Z,3.80
2024-03-11T20:50:21.855Z,3.53
2024-03-11T20:53:24.334Z,4.47
2024-03-11T20:56:26.088Z,4.33
2024-03-11T20:59:27.593Z,4.53
2024-03-11T21:02:29.156Z,5.67
2024-03-11T21:05:30.632Z,6.70
2024-03-11T21:08:34.960Z,5.73
2024-03-11T21:11:37.433Z,4.53
2024-03-11T21:14:38.902Z,5.47
2024-03-11T21:17:42.545Z,5.47
2024-03-11T21:20:56.802Z,5.60
2024-03-11T21:24:08.374Z,3.80
2024-03-11T21:27:39.437Z,4.53
2024-03-11T21:30:42.832Z,4.60
2024-03-11T21:33:45.169Z,4.27
2024-03-11T21:36:46.741Z,4.33
2024-03-11T21:39:53.781Z,4.40
2024-03-11T21:42:55.757Z,4.17
2024-03-11T21:45:57.579Z,3.90
2024-03-11T21:48:59.094Z,5.10
2024-03-11T21:52:00.760Z,3.50
2024-03-11T21:55:03.059Z,5.47
2024-03-11T21:58:05.019Z,3.77
2024-03-11T22:01:08.143Z,4.83
2024-03-11T22:04:10.019Z,4.90
2024-03-11T22:07:13.331Z,4.23
2024-03-11T22:10:15.600Z,5.50
2024-03-11T22:13:18.823Z,7.67
2024-03-11T22:16:20.291Z,5.03
2024-03-11T22:19:21.739Z,4.70
2024-03-11T22:22:23.159Z,6.40
2024-03-11T22:25:25.337Z,4.77
2024-03-11T22:28:26.865Z,4.90
2024-03-11T22:31:28.306Z,5.77
2024-03-11T22:34:31.281Z,4.73
2024-03-11T22:37:32.722Z,4.87
2024-03-11T22:40:34.678Z,4.57
2024-03-11T22:43:36.820Z,4.30
2024-03-11T22:46:41.079Z,3.97
2024-03-11T22:49:42.641Z,4.27
2024-03-11T22:52:44.253Z,4.20
2024-03-11T22:55:46.046Z,4.23
2024-03-11T22:58:47.912Z,4.17
2024-03-11T23:01:49.817Z,5.50
2024-03-11T23:04:51.750Z,4.47
2024-03-11T23:07:54.393Z,4.77
2024-03-11T23:10:56.902Z,3.70
2024-03-11T23:13:59.216Z,4.33
2024-03-11T23:17:03.139Z,3.67
2024-03-11T23:20:05.006Z,4.43
2024-03-11T23:23:08.991Z,3.60
2024-03-11T23:26:12.107Z,4.57
2024-03-11T23:29:13.680Z,4.40
2024-03-11T23:32:15.353Z,4.13
2024-03-11T23:35:16.844Z,3.60
2024-03-11T23:38:18.283Z,4.67
2024-03-11T23:41:19.810Z,3.40
2024-03-11T23:44:21.362Z,4.67
2024-03-11T23:47:23.594Z,3.80
2024-03-11T23:50:25.614Z,4.23
2024-03-11T23:53:27.987Z,3.63
2024-03-11T23:56:31.323Z,4.37
2024-03-11T23:59:33.502Z,7.00
